Time;durP1;ratioP1;P1;durP2;ratioP2;P2;SDS_P1;SDS_P2;PMS_P1;PMS_P2;Temp;Humidity;BMP_temperature;BMP_pressure;BME280_temperature;BME280_humidity;BME280_pressure;Samples;Min_cycle;Max_cycle;Signal;HPM_P1;HPM_P2
2022/05/26 00:01:29;;;;;;;21.77;15.23;;;;;;;13.96;82.00;101618.66;4992216;28;20034;-55
2022/05/26 00:03:55;;;;;;;20.38;14.00;;;;;;;13.95;82.24;101607.84;4992489;28;20031;-57
2022/05/26 00:06:23;;;;;;;20.55;13.15;;;;;;;13.97;82.00;101613.94;4992666;28;20042;-57
2022/05/26 00:08:49;;;;;;;19.80;12.95;;;;;;;14.00;81.84;101614.13;4992886;28;20088;-55
2022/05/26 00:11:22;;;;;;;19.58;13.35;;;;;;;13.97;81.70;101602.81;4991808;28;20034;-58
2022/05/26 00:13:48;;;;;;;20.85;13.32;;;;;;;14.01;81.75;101614.94;4991780;28;20481;-56
2022/05/26 00:16:14;;;;;;;20.35;13.73;;;;;;;14.02;81.86;101614.66;4990757;28;20030;-56
2022/05/26 00:18:39;;;;;;;19.65;13.02;;;;;;;14.01;81.84;101615.78;4992051;28;20082;-57
2022/05/26 00:21:05;;;;;;;21.70;13.30;;;;;;;14.02;81.75;101616.59;4975123;28;20474;-57
2022/05/26 00:23:30;;;;;;;20.58;13.60;;;;;;;13.99;81.89;101618.03;4992653;28;20030;-57
2022/05/26 00:25:56;;;;;;;20.67;13.90;;;;;;;13.96;82.09;101615.88;4992155;28;20370;-57
2022/05/26 00:28:21;;;;;;;20.10;13.40;;;;;;;13.97;82.10;101620.31;4992269;28;20081;-57
2022/05/26 00:30:48;;;;;;;20.10;12.82;;;;;;;14.00;81.95;101625.25;4991132;28;20390;-56
2022/05/26 00:33:14;;;;;;;19.33;13.15;;;;;;;13.99;82.17;101628.31;4992897;28;20453;-56
2022/05/26 00:35:40;;;;;;;20.58;12.82;;;;;;;13.99;82.14;101623.59;4995312;28;20040;-58
2022/05/26 00:38:09;;;;;;;20.00;13.45;;;;;;;13.99;82.05;101633.88;4995216;28;20056;-57
2022/05/26 00:40:35;;;;;;;19.58;12.52;;;;;;;13.98;82.30;101629.50;4995425;28;20030;-57
2022/05/26 00:43:00;;;;;;;18.90;13.25;;;;;;;13.99;82.16;101625.53;4977693;28;20029;-56
2022/05/26 00:45:34;;;;;;;21.20;13.65;;;;;;;13.97;82.38;101622.28;4995759;28;20390;-57
2022/05/26 00:48:00;;;;;;;21.58;13.40;;;;;;;14.00;82.17;101632.75;4994914;28;20042;-58
2022/05/26 00:50:29;;;;;;;21.00;13.93;;;;;;;13.97;82.43;101631.44;4977448;28;20469;-57
2022/05/26 00:52:59;;;;;;;20.35;13.05;;;;;;;13.99;82.48;101622.75;4995346;28;20030;-57
2022/05/26 00:55:29;;;;;;;20.35;12.88;;;;;;;13.97;82.71;101625.06;4995542;28;20034;-57
2022/05/26 00:58:00;;;;;;;22.23;13.63;;;;;;;13.95;82.77;101619.78;4994476;28;20472;-55
2022/05/26 01:00:28;;;;;;;21.48;13.63;;;;;;;13.93;83.08;101624.00;4994562;28;20393;-55
2022/05/26 01:03:21;;;;;;;20.27;13.10;;;;;;;13.89;82.78;101616.28;4994623;28;20651;-56
2022/05/26 01:06:01;;;;;;;20.75;13.38;;;;;;;13.95;82.45;101622.56;4994325;28;20470;-56
2022/05/26 01:08:42;;;;;;;22.30;13.95;;;;;;;13.92;82.93;101626.00;4994853;28;20041;-58
2022/05/26 01:11:08;;;;;;;21.05;13.68;;;;;;;13.93;83.25;101629.56;4994577;28;20041;-56
2022/05/26 01:13:38;;;;;;;21.90;13.77;;;;;;;13.89;83.22;101619.06;4994076;28;20139;-56
2022/05/26 01:16:09;;;;;;;21.70;13.13;;;;;;;13.92;83.37;101625.16;4994463;28;20038;-56
2022/05/26 01:18:48;;;;;;;20.80;13.55;;;;;;;13.93;82.97;101621.22;4994037;28;20058;-56
2022/05/26 01:21:26;;;;;;;19.77;12.80;;;;;;;13.88;83.34;101625.78;4994897;28;20461;-55
2022/05/26 01:24:21;;;;;;;21.77;14.13;;;;;;;13.92;83.21;101627.94;4994942;28;20023;-55
2022/05/26 01:27:28;;;;;;;23.40;14.63;;;;;;;13.92;83.43;101639.06;4994417;28;20026;-56
2022/05/26 01:30:02;;;;;;;23.77;14.00;;;;;;;13.95;83.48;101635.66;4995205;28;20050;-54
2022/05/26 01:32:49;;;;;;;23.52;14.45;;;;;;;13.91;83.10;101632.69;4993776;28;20403;-54
2022/05/26 01:35:29;;;;;;;21.50;14.20;;;;;;;13.92;83.62;101636.28;4994074;28;20492;-55
2022/05/26 01:38:26;;;;;;;22.20;14.55;;;;;;;13.93;82.97;101637.94;4993125;28;20026;-54
2022/05/26 01:41:00;;;;;;;21.95;14.25;;;;;;;13.95;83.52;101644.00;4993545;28;20037;-55
2022/05/26 01:43:39;;;;;;;22.73;14.85;;;;;;;13.88;84.17;101639.69;4993269;28;20033;-55
2022/05/26 01:46:12;;;;;;;23.55;15.13;;;;;;;13.89;84.29;101646.88;4993966;28;20034;-53
2022/05/26 01:48:51;;;;;;;24.50;15.13;;;;;;;13.88;84.16;101645.25;4975731;28;20022;-54
2022/05/26 01:51:43;;;;;;;26.23;15.48;;;;;;;13.88;84.23;101649.97;4993508;28;20022;-54
2022/05/26 01:54:57;;;;;;;24.95;15.40;;;;;;;13.91;83.49;101652.16;4993441;28;20132;-54
2022/05/26 01:57:32;;;;;;;24.90;15.65;;;;;;;13.88;84.06;101652.75;4988236;28;20035;-55
2022/05/26 02:00:05;;;;;;;26.52;15.40;;;;;;;13.90;84.38;101661.63;4993084;28;20064;-53
2022/05/26 02:02:36;;;;;;;26.08;16.15;;;;;;;13.88;84.34;101656.38;4992764;28;20045;-57
2022/05/26 02:05:09;;;;;;;27.33;17.38;;;;;;;13.85;84.77;101661.72;4993847;28;20030;-58
2022/05/26 02:07:48;;;;;;;23.83;16.50;;;;;;;13.91;84.62;101660.50;4994063;28;20037;-57
2022/05/26 02:10:20;;;;;;;28.00;16.55;;;;;;;13.83;84.90;101656.47;4993627;28;20053;-57
2022/05/26 02:12:57;;;;;;;25.85;15.77;;;;;;;13.86;84.75;101666.97;4993485;28;20117;-58
2022/05/26 02:15:47;;;;;;;26.65;17.02;;;;;;;13.86;84.37;101664.19;4993523;28;20034;-54
2022/05/26 02:18:24;;;;;;;28.10;16.77;;;;;;;13.84;85.01;101657.28;4993325;28;20058;-55
2022/05/26 02:20:54;;;;;;;24.73;17.13;;;;;;;13.87;84.88;101668.63;4993828;28;20434;-53
2022/05/26 02:23:30;;;;;;;26.60;17.00;;;;;;;13.86;85.08;101675.31;4993662;28;20117;-54
2022/05/26 02:26:00;;;;;;;23.58;16.92;;;;;;;13.84;84.98;101676.75;4993175;28;20465;-54
2022/05/26 02:28:25;;;;;;;27.00;16.60;;;;;;;13.83;85.22;101680.69;4992993;28;20034;-55
2022/05/26 02:30:51;;;;;;;27.83;18.08;;;;;;;13.80;85.58;101679.31;4993701;28;20038;-55
2022/05/26 02:33:18;;;;;;;26.98;17.85;;;;;;;13.81;85.24;101680.97;4992908;28;20126;-55
2022/05/26 02:35:48;;;;;;;29.80;17.77;;;;;;;13.77;85.42;101679.13;4993297;28;20026;-54
2022/05/26 02:38:16;;;;;;;27.90;17.33;;;;;;;13.79;85.80;101688.78;4991248;28;20390;-53
2022/05/26 02:40:42;;;;;;;26.77;17.70;;;;;;;13.78;85.89;101691.88;4993191;28;20462;-55
2022/05/26 02:43:23;;;;;;;28.77;17.02;;;;;;;13.76;85.91;101683.03;4993213;28;20030;-55
2022/05/26 02:46:06;;;;;;;28.33;16.88;;;;;;;13.74;85.88;101677.78;4975625;28;20023;-54
2022/05/26 02:48:59;;;;;;;26.15;16.85;;;;;;;13.70;86.02;101688.69;4992473;28;20026;-54
2022/05/26 02:51:28;;;;;;;28.02;17.35;;;;;;;13.71;85.86;101686.72;4993124;28;20464;-54
2022/05/26 02:54:12;;;;;;;27.17;17.27;;;;;;;13.72;86.07;101694.78;4992557;28;20093;-55
2022/05/26 02:56:46;;;;;;;;;;;;;;;13.77;84.24;101690.25;4992325;28;20118;-54
2022/05/26 02:59:29;;;;;;;28.83;17.33;;;;;;;13.72;86.08;101689.22;4993192;28;19914;-52
2022/05/26 03:02:07;;;;;;;30.15;18.17;;;;;;;13.76;85.91;101688.59;4992811;28;20031;-51
2022/05/26 03:04:37;;;;;;;27.67;17.13;;;;;;;13.70;86.22;101696.19;4992796;28;20030;-54
2022/05/26 03:07:08;;;;;;;27.63;17.65;;;;;;;13.63;86.38;101696.63;4992858;28;20023;-53
2022/05/26 03:09:35;;;;;;;27.95;17.05;;;;;;;13.65;86.69;101699.91;4992190;28;20030;-53
2022/05/26 03:12:01;;;;;;;28.45;17.60;;;;;;;13.65;86.71;101701.88;4992443;28;20030;-53
2022/05/26 03:14:26;;;;;;;26.38;16.83;;;;;;;13.64;86.64;101701.06;4992085;28;20027;-54
2022/05/26 03:16:52;;;;;;;29.30;17.40;;;;;;;13.63;86.76;101702.19;4992209;28;20450;-55
2022/05/26 03:19:18;;;;;;;27.50;17.00;;;;;;;13.61;86.85;101693.31;4991831;28;20061;-55
2022/05/26 03:21:44;;;;;;;29.85;18.52;;;;;;;13.62;86.83;101706.09;4992312;28;20030;-55
2022/05/26 03:24:10;;;;;;;27.35;17.70;;;;;;;13.62;87.22;101699.69;4992817;28;20057;-55
2022/05/26 03:26:36;;;;;;;26.40;16.83;;;;;;;13.62;86.55;101705.25;4992431;28;20386;-55
2022/05/26 03:29:02;;;;;;;30.17;18.70;;;;;;;13.62;87.06;101711.66;4992595;28;20031;-54
2022/05/26 03:31:28;;;;;;;29.27;17.55;;;;;;;13.57;87.28;101707.00;4992155;28;20034;-52
2022/05/26 03:42:23;;;;;;;29.10;18.73;;;;;;;13.55;87.40;101727.91;4991903;28;20101;-54
2022/05/26 03:44:48;;;;;;;31.27;18.35;;;;;;;13.52;87.49;101729.31;4992820;28;20026;-53
2022/05/26 03:47:14;;;;;;;32.10;18.70;;;;;;;13.52;87.59;101728.50;4992169;28;20038;-54
2022/05/26 03:49:39;;;;;;;29.90;18.52;;;;;;;13.51;87.48;101727.66;4991324;28;20552;-53
2022/05/26 03:52:05;;;;;;;28.38;17.98;;;;;;;13.53;87.44;101725.41;4992109;28;20029;-53
2022/05/26 03:54:30;;;;;;;29.48;18.40;;;;;;;13.50;87.66;101726.03;4991346;28;20026;-53
2022/05/26 03:56:55;;;;;;;30.65;18.27;;;;;;;13.54;87.43;101735.41;4991862;28;20036;-52
2022/05/26 03:59:21;;;;;;;32.70;18.15;;;;;;;13.52;87.65;101737.66;4992355;28;20466;-53
2022/05/26 04:01:46;;;;;;;30.50;17.35;;;;;;;13.51;87.72;101740.75;4991557;28;20030;-52
2022/05/26 04:04:13;;;;;;;35.13;17.42;;;;;;;13.49;87.65;101737.44;4992826;28;20494;-53
2022/05/26 04:06:38;;;;;;;28.50;16.73;;;;;;;13.48;87.74;101749.69;4992476;28;20101;-53
2022/05/26 04:09:04;;;;;;;28.88;16.08;;;;;;;13.47;87.58;101748.88;4995713;28;20031;-53
2022/05/26 04:11:30;;;;;;;30.83;16.33;;;;;;;13.49;87.60;101746.63;4994556;28;20033;-53
2022/05/26 04:13:56;;;;;;;29.65;16.55;;;;;;;13.50;87.63;101751.06;4995633;28;20065;-54
2022/05/26 04:16:22;;;;;;;28.65;15.40;;;;;;;13.51;87.62;101754.66;4995775;28;20157;-53
2022/05/26 04:18:48;;;;;;;30.05;15.80;;;;;;;13.51;87.30;101755.47;4995444;28;20109;-50
2022/05/26 04:21:14;;;;;;;30.27;15.35;;;;;;;13.50;87.60;101759.41;4995781;28;20034;-53
2022/05/26 04:23:40;;;;;;;28.55;15.05;;;;;;;13.52;87.50;101757.13;4995836;28;20118;-54
2022/05/26 04:26:08;;;;;;;33.60;16.05;;;;;;;13.53;87.44;101758.78;4995601;28;20105;-53
2022/05/26 04:28:34;;;;;;;28.75;14.60;;;;;;;13.55;87.26;101762.09;4995372;28;20026;-52
2022/05/26 04:30:59;;;;;;;25.90;14.10;;;;;;;13.58;86.96;101757.84;4995711;28;20085;-52
2022/05/26 04:33:25;;;;;;;26.30;14.35;;;;;;;13.58;87.07;101763.41;4994914;28;20030;-52
2022/05/26 04:35:50;;;;;;;32.45;14.93;;;;;;;13.59;86.91;101765.06;4995587;28;20153;-54
2022/05/26 04:38:16;;;;;;;29.17;14.40;;;;;;;13.57;86.95;101765.38;4995300;28;20062;-50
2022/05/26 04:40:42;;;;;;;28.73;14.27;;;;;;;13.57;86.88;101765.38;4994691;28;20137;-53
2022/05/26 04:43:08;;;;;;;26.50;15.15;;;;;;;13.59;86.81;101767.84;4995265;28;20037;-52
2022/05/26 04:45:33;;;;;;;28.35;14.40;;;;;;;13.61;86.71;101768.38;4977381;28;20031;-55
2022/05/26 04:47:59;;;;;;;27.50;14.68;;;;;;;13.64;86.58;101778.91;4995068;28;20421;-55
2022/05/26 04:50:24;;;;;;;29.25;14.13;;;;;;;13.67;86.69;101780.25;4995334;28;20442;-55
2022/05/26 04:52:50;;;;;;;28.15;14.20;;;;;;;13.71;86.28;101784.06;4995310;28;20453;-55
2022/05/26 04:55:16;;;;;;;30.85;13.70;;;;;;;13.75;85.87;101790.66;4994103;28;20113;-53
2022/05/26 04:57:41;;;;;;;28.58;14.13;;;;;;;13.82;85.75;101787.50;4994464;28;20026;-54
2022/05/26 05:00:12;;;;;;;27.95;14.25;;;;;;;13.82;85.37;101779.97;4994938;28;20355;-54
2022/05/26 05:02:38;;;;;;;26.35;13.18;;;;;;;13.95;84.86;101794.22;4994392;28;20101;-53
2022/05/26 05:05:05;;;;;;;26.42;13.30;;;;;;;13.99;84.74;101795.25;4994441;28;20037;-58
2022/05/26 05:07:31;;;;;;;26.08;14.15;;;;;;;14.01;84.61;101801.31;4994979;28;20050;-52
2022/05/26 05:09:56;;;;;;;27.38;13.65;;;;;;;14.03;84.42;101810.19;4994765;28;20022;-54
2022/05/26 05:12:23;;;;;;;26.35;13.93;;;;;;;14.01;85.00;101816.09;4994837;28;20092;-54
2022/05/26 05:14:51;;;;;;;26.92;13.32;;;;;;;14.03;84.63;101816.56;4994982;28;20106;-54
2022/05/26 05:17:19;;;;;;;29.90;13.23;;;;;;;14.03;84.78;101813.78;4994600;28;20026;-56
2022/05/26 05:19:46;;;;;;;27.90;13.18;;;;;;;14.06;84.90;101817.94;4993811;28;20129;-55
2022/05/26 05:22:27;;;;;;;28.20;13.20;;;;;;;14.04;84.68;101818.22;4994907;28;20393;-56
2022/05/26 05:25:01;;;;;;;28.10;13.38;;;;;;;14.04;84.51;101814.63;4993244;28;20092;-55
2022/05/26 05:27:48;;;;;;;29.35;13.95;;;;;;;14.10;84.42;101827.31;4993671;28;20045;-55
2022/05/26 05:30:26;;;;;;;26.60;13.30;;;;;;;14.12;84.56;101819.50;4994097;28;20099;-55
2022/05/26 05:32:56;;;;;;;27.90;13.50;;;;;;;14.11;84.38;101820.63;4994000;28;20038;-58
2022/05/26 05:35:26;;;;;;;27.90;12.98;;;;;;;14.17;84.39;101833.28;4994047;28;20121;-55
2022/05/26 05:37:52;;;;;;;24.85;12.90;;;;;;;14.22;84.10;101834.34;4992838;28;20056;-54
2022/05/26 05:40:17;;;;;;;28.75;13.68;;;;;;;14.25;83.81;101839.31;4993516;28;20058;-55
2022/05/26 05:42:42;;;;;;;28.92;13.27;;;;;;;14.32;84.10;101840.53;4993630;28;20434;-54
2022/05/26 05:45:08;;;;;;;27.20;13.75;;;;;;;14.38;83.42;101846.84;4993990;28;20422;-55
2022/05/26 05:47:34;;;;;;;31.25;13.63;;;;;;;14.44;83.34;101842.84;4993423;28;20049;-56
2022/05/26 05:49:59;;;;;;;29.48;13.38;;;;;;;14.53;82.94;101854.06;4994164;28;20030;-55
2022/05/26 05:52:25;;;;;;;27.50;13.13;;;;;;;14.59;82.75;101843.66;4994399;28;20080;-55
2022/05/26 05:54:50;;;;;;;26.83;13.35;;;;;;;14.66;82.32;101849.63;4976853;28;20033;-55
2022/05/26 05:57:16;;;;;;;30.08;13.80;;;;;;;14.72;82.23;101844.81;4975948;28;20034;-56
2022/05/26 05:59:42;;;;;;;28.58;14.23;;;;;;;14.75;81.79;101849.78;4992824;28;20026;-56
2022/05/26 06:02:07;;;;;;;25.85;13.65;;;;;;;14.79;81.69;101850.78;4993955;28;20344;-54
2022/05/26 06:04:41;;;;;;;28.20;13.75;;;;;;;14.81;81.51;101857.72;4994284;28;20112;-55
2022/05/26 06:07:15;;;;;;;27.73;13.40;;;;;;;14.87;81.13;101863.16;4994058;28;20393;-55
2022/05/26 06:09:40;;;;;;;26.75;13.18;;;;;;;14.84;80.92;101861.84;4994087;28;20035;-54
2022/05/26 06:12:06;;;;;;;26.90;13.38;;;;;;;14.85;81.28;101863.50;4994165;28;20038;-55
2022/05/26 06:14:31;;;;;;;26.77;13.30;;;;;;;14.95;80.93;101868.84;4993956;28;20465;-54
2022/05/26 06:16:56;;;;;;;25.60;13.70;;;;;;;15.10;80.07;101862.13;4993866;28;20058;-55
2022/05/26 06:19:22;;;;;;;27.38;13.60;;;;;;;15.23;79.85;101862.41;4993639;28;20047;-55
2022/05/26 06:21:47;;;;;;;24.65;14.40;;;;;;;15.32;79.50;101868.06;4993627;28;20029;-53
2022/05/26 06:24:13;;;;;;;27.42;13.30;;;;;;;15.32;79.33;101879.22;4993658;28;20453;-55
2022/05/26 06:26:38;;;;;;;26.45;13.38;;;;;;;15.24;79.70;101869.63;4993406;28;20022;-54
2022/05/26 06:37:17;;;;;;;27.23;13.93;;;;;;;15.42;78.42;101892.94;4994248;28;19940;-55
2022/05/26 06:39:42;;;;;;;30.40;14.45;;;;;;;15.51;78.43;101884.63;4993764;28;20411;-55
2022/05/26 06:42:09;;;;;;;29.23;14.52;;;;;;;15.64;77.98;101892.13;4993722;28;20393;-55
2022/05/26 06:44:42;;;;;;;26.25;13.77;;;;;;;15.72;77.21;101899.75;4993757;28;20036;-55
2022/05/26 06:47:13;;;;;;;29.38;15.55;;;;;;;15.69;76.63;101903.16;4993216;28;20041;-54
2022/05/26 06:49:40;;;;;;;29.55;16.00;;;;;;;15.68;76.54;101895.91;4993047;28;20022;-55
2022/05/26 06:52:07;;;;;;;26.80;15.02;;;;;;;15.79;76.39;101885.38;4992974;28;20026;-54
2022/05/26 06:54:36;;;;;;;29.60;15.40;;;;;;;16.02;75.15;101897.38;4993255;28;20027;-56
2022/05/26 06:57:02;;;;;;;28.80;14.65;;;;;;;16.04;74.59;101902.63;4993419;28;20022;-55
2022/05/26 06:59:29;;;;;;;24.35;14.15;;;;;;;16.06;75.11;101917.09;4993132;28;20126;-55
2022/05/26 07:01:54;;;;;;;24.48;14.38;;;;;;;16.10;74.75;101909.75;4992650;28;20052;-56
2022/05/26 07:04:20;;;;;;;27.27;14.63;;;;;;;16.13;74.45;101916.66;4992585;28;20504;-55
2022/05/26 07:06:51;;;;;;;26.80;13.98;;;;;;;16.13;74.24;101919.44;4992992;28;20058;-56
2022/05/26 07:09:17;;;;;;;26.67;14.70;;;;;;;16.06;73.29;101908.72;4993429;28;20057;-56
2022/05/26 07:11:42;;;;;;;24.70;13.73;;;;;;;16.14;73.13;101915.53;4993112;28;20113;-56
2022/05/26 07:14:08;;;;;;;23.77;14.40;;;;;;;16.25;72.32;101913.28;4993238;28;20117;-55
2022/05/26 07:16:33;;;;;;;25.20;13.85;;;;;;;16.19;71.99;101921.81;4992714;28;20034;-56
2022/05/26 07:18:59;;;;;;;23.45;13.60;;;;;;;16.12;71.97;101926.16;4992204;28;20129;-55
2022/05/26 07:21:24;;;;;;;25.98;14.02;;;;;;;16.00;71.95;101929.53;4993152;28;20085;-56
2022/05/26 07:23:49;;;;;;;23.70;14.10;;;;;;;16.01;72.42;101926.44;4993021;28;20034;-55
2022/05/26 07:26:15;;;;;;;25.67;14.40;;;;;;;16.19;71.63;101927.38;4992578;28;20026;-56
2022/05/26 07:28:41;;;;;;;23.73;13.38;;;;;;;16.41;70.70;101934.06;4992759;28;20111;-56
2022/05/26 07:31:10;;;;;;;24.60;14.30;;;;;;;16.45;69.92;101937.88;4993208;28;20105;-56
2022/05/26 07:33:35;;;;;;;26.58;14.30;;;;;;;16.51;69.72;101933.78;4992732;28;20454;-57
2022/05/26 07:36:00;;;;;;;23.95;14.55;;;;;;;16.64;69.71;101943.22;4993085;28;20061;-58
2022/05/26 07:41:24;;;;;;;23.10;13.50;;;;;;;16.90;69.25;101950.94;4993508;28;20088;-57
2022/05/26 07:43:54;;;;;;;23.55;13.32;;;;;;;16.86;68.12;101944.31;4996651;28;20034;-56
2022/05/26 07:46:21;;;;;;;23.88;13.70;;;;;;;17.03;67.83;101953.94;4997115;28;20105;-57
2022/05/26 07:48:47;;;;;;;23.95;13.45;;;;;;;17.23;67.36;101942.16;4997219;28;20069;-58
2022/05/26 07:51:14;;;;;;;24.58;13.48;;;;;;;17.32;66.29;101956.19;4996497;28;20033;-58
2022/05/26 07:53:39;;;;;;;24.65;13.10;;;;;;;17.21;67.12;101947.25;4996697;28;20081;-58
2022/05/26 07:56:05;;;;;;;24.13;13.50;;;;;;;17.23;67.40;101952.53;4996645;28;20031;-58
2022/05/26 07:58:30;;;;;;;22.85;13.05;;;;;;;17.18;66.72;101947.09;4996549;28;20022;-57
2022/05/26 08:00:56;;;;;;;22.13;12.93;;;;;;;17.03;66.77;101957.56;4999189;28;20072;-57
2022/05/26 08:03:22;;;;;;;23.17;13.02;;;;;;;16.90;66.04;101955.66;5004305;28;20462;-57
2022/05/26 08:05:47;;;;;;;23.25;12.57;;;;;;;16.79;66.48;101955.13;5006443;28;20157;-57
2022/05/26 08:08:13;;;;;;;24.20;12.55;;;;;;;16.80;66.62;101960.41;5005682;28;20073;-57
2022/05/26 08:10:39;;;;;;;22.05;12.98;;;;;;;16.90;66.97;101959.31;5005172;28;20022;-57
2022/05/26 08:13:05;;;;;;;25.35;13.98;;;;;;;17.07;66.62;101960.53;5006694;28;20022;-57
2022/05/26 08:15:31;;;;;;;22.27;13.25;;;;;;;17.29;65.76;101963.22;5005413;28;20437;-56
2022/05/26 08:17:56;;;;;;;21.67;13.10;;;;;;;17.45;64.36;101966.41;5005231;28;20036;-57
2022/05/26 08:20:22;;;;;;;21.10;12.68;;;;;;;17.60;64.56;101964.28;5005964;28;20377;-55
2022/05/26 08:22:47;;;;;;;23.23;13.35;;;;;;;17.60;65.16;101969.88;5003340;28;20023;-57
2022/05/26 08:25:13;;;;;;;23.38;12.82;;;;;;;17.50;64.19;101964.59;5009042;28;20177;-56
2022/05/26 08:27:38;;;;;;;21.75;13.20;;;;;;;17.45;64.21;101965.59;5014229;28;20034;-56
2022/05/26 08:30:05;;;;;;;23.98;13.82;;;;;;;17.46;63.29;101968.03;5015743;28;20053;-57
2022/05/26 08:32:30;;;;;;;23.23;12.98;;;;;;;17.49;63.39;101976.94;5015742;28;20497;-57
2022/05/26 08:34:57;;;;;;;22.83;13.50;;;;;;;17.56;62.96;101975.31;5015599;28;20052;-56
2022/05/26 08:37:23;;;;;;;22.75;13.82;;;;;;;17.60;62.57;101967.91;5015581;28;20034;-57
2022/05/26 08:39:48;;;;;;;20.20;12.27;;;;;;;17.65;62.06;101969.72;5015567;28;20140;-55
2022/05/26 08:42:21;;;;;;;22.77;12.80;;;;;;;17.74;63.71;101969.75;4995389;28;20049;-56
2022/05/26 08:44:48;;;;;;;20.50;12.02;;;;;;;17.84;63.00;101977.81;5013193;28;20481;-57
2022/05/26 08:47:16;;;;;;;22.05;12.70;;;;;;;17.68;62.88;101977.47;4995181;28;20030;-58
2022/05/26 08:49:45;;;;;;;20.95;12.48;;;;;;;17.75;63.14;101980.59;5013366;28;20033;-54
2022/05/26 08:52:11;;;;;;;21.80;12.73;;;;;;;17.82;62.77;101984.88;5012780;28;20037;-55
2022/05/26 08:54:56;;;;;;;20.30;11.97;;;;;;;17.91;61.79;101994.09;5011786;28;20079;-55
2022/05/26 08:57:27;;;;;;;21.67;12.88;;;;;;;17.98;62.34;101991.69;5011088;28;20394;-56
2022/05/26 08:59:52;;;;;;;21.02;13.00;;;;;;;18.03;62.45;101991.50;5013038;28;20064;-55
2022/05/26 09:02:31;;;;;;;20.92;13.15;;;;;;;18.02;62.23;101995.47;5013036;28;20643;-56
2022/05/26 09:05:00;;;;;;;21.33;12.60;;;;;;;18.04;61.36;101995.16;5012684;28;20037;-54
2022/05/26 09:13:17;;;;;;;20.38;11.68;;;;;;;18.00;59.98;101991.34;5012782;28;20057;-56
2022/05/26 09:15:42;;;;;;;18.88;11.35;;;;;;;18.20;59.92;101984.25;5012208;28;20034;-56
2022/05/26 09:18:16;;;;;;;21.25;12.50;;;;;;;18.47;58.81;101980.25;5012214;28;20034;-56
2022/05/26 09:20:44;;;;;;;24.25;13.75;;;;;;;18.52;58.36;101988.47;5012491;28;20041;-56
2022/05/26 09:23:28;;;;;;;20.60;13.05;;;;;;;18.56;59.26;101985.84;5012170;28;20484;-56
2022/05/26 09:26:06;;;;;;;23.95;12.45;;;;;;;18.59;58.86;101998.38;5012867;28;20095;-56
2022/05/26 09:28:38;;;;;;;21.05;11.75;;;;;;;18.64;58.20;101996.22;5012138;28;20038;-56
2022/05/26 09:31:29;;;;;;;24.88;13.40;;;;;;;18.82;59.02;101998.97;5012265;28;20052;-57
2022/05/26 09:34:09;;;;;;;23.58;13.60;;;;;;;18.88;57.83;102005.22;4994659;28;20053;-57
2022/05/26 09:36:52;;;;;;;21.17;12.32;;;;;;;18.97;57.90;102009.66;5011975;28;20030;-54
2022/05/26 09:39:37;;;;;;;23.08;13.27;;;;;;;18.93;57.32;102000.28;5012597;28;20053;-54
2022/05/26 09:42:08;;;;;;;21.60;12.48;;;;;;;19.06;55.72;102017.22;5012525;28;20057;-54
2022/05/26 09:45:06;;;;;;;19.33;11.65;;;;;;;19.22;56.22;102017.47;5012499;28;20022;-54
2022/05/26 09:47:58;;;;;;;20.58;11.95;;;;;;;19.22;55.04;102021.13;5010784;28;20045;-55
2022/05/26 09:50:32;;;;;;;19.25;11.70;;;;;;;19.07;55.88;102018.84;5010498;28;20042;-57
2022/05/26 09:52:58;;;;;;;19.10;11.40;;;;;;;18.99;55.20;102026.13;5012165;28;20041;-56
2022/05/26 09:55:40;;;;;;;19.90;11.55;;;;;;;18.86;56.57;102026.00;5011367;28;20036;-56
2022/05/26 09:58:11;;;;;;;21.33;11.95;;;;;;;18.72;56.90;102022.56;5010045;28;20463;-56
2022/05/26 10:00:45;;;;;;;21.52;11.85;;;;;;;18.69;57.80;102010.03;5011444;28;20044;-56
2022/05/26 10:03:48;;;;;;;21.80;11.57;;;;;;;18.93;57.49;102033.94;5011777;28;20033;-56
2022/05/26 10:06:29;;;;;;;18.98;10.57;;;;;;;18.77;55.71;102027.16;5011203;28;20029;-54
2022/05/26 10:09:23;;;;;;;21.17;11.10;;;;;;;18.74;57.08;102028.66;5011790;28;20049;-50
2022/05/26 10:12:08;;;;;;;21.77;12.82;;;;;;;18.78;56.70;102023.22;5011635;28;20065;-61
2022/05/26 10:15:08;;;;;;;21.58;12.35;;;;;;;19.20;57.07;102019.78;5011438;28;20117;-52
2022/05/26 10:17:49;;;;;;;22.00;12.00;;;;;;;19.42;54.79;102027.09;5007799;28;20056;-58
2022/05/26 10:20:28;;;;;;;21.02;11.50;;;;;;;19.61;54.03;102024.69;4994034;28;20049;-56
2022/05/26 10:23:11;;;;;;;23.48;13.32;;;;;;;19.66;54.23;102022.84;5011454;28;20041;-59
2022/05/26 10:25:45;;;;;;;22.38;14.32;;;;;;;19.56;54.34;102040.88;5011788;28;20030;-58
2022/05/26 10:28:45;;;;;;;19.25;11.77;;;;;;;19.51;54.30;102036.28;5011308;28;20184;-57
2022/05/26 10:31:27;;;;;;;15.75;9.60;;;;;;;19.59;52.57;102031.81;5011900;28;20026;-57
2022/05/26 10:34:37;;;;;;;16.45;9.70;;;;;;;19.68;51.57;102041.00;5006962;28;20058;-57
2022/05/26 10:37:26;;;;;;;18.52;9.50;;;;;;;19.58;50.54;102041.38;4991493;28;20054;-57
2022/05/26 10:40:00;;;;;;;19.45;9.48;;;;;;;19.66;50.22;102032.06;4991700;28;20079;-57
2022/05/26 10:42:30;;;;;;;18.70;9.10;;;;;;;19.67;51.10;102039.34;4990479;28;20040;-57
2022/05/26 10:45:06;;;;;;;17.45;10.40;;;;;;;19.73;51.36;102039.97;4991551;28;20072;-56
2022/05/26 10:47:39;;;;;;;17.65;10.40;;;;;;;19.90;50.83;102044.69;4991356;28;20046;-57
2022/05/26 10:50:16;;;;;;;20.67;11.00;;;;;;;20.04;50.24;102039.59;4991416;28;20084;-56
2022/05/26 10:52:46;;;;;;;19.35;10.38;;;;;;;20.04;49.58;102028.38;4991535;28;20516;-57
2022/05/26 10:55:18;;;;;;;18.20;10.43;;;;;;;20.13;50.36;102035.91;4991528;28;20034;-57
2022/05/26 10:57:57;;;;;;;20.33;10.70;;;;;;;20.24;49.28;102037.97;4988979;28;20045;-57
2022/05/26 11:00:28;;;;;;;18.88;11.23;;;;;;;20.34;49.88;102030.28;4991631;28;20053;-57
2022/05/26 11:03:19;;;;;;;20.08;12.32;;;;;;;20.35;50.06;102037.56;4991243;28;20496;-58
2022/05/26 11:05:50;;;;;;;21.02;13.55;;;;;;;20.33;49.61;102040.69;4991253;28;20033;-58
2022/05/26 11:08:22;;;;;;;21.05;12.73;;;;;;;20.45;48.81;102044.72;4991028;28;20446;-55
2022/05/26 11:10:55;;;;;;;19.15;11.73;;;;;;;20.38;49.13;102043.31;4991086;28;20128;-57
2022/05/26 11:13:43;;;;;;;21.95;12.70;;;;;;;20.26;50.25;102046.03;4991023;28;20022;-58
2022/05/26 11:19:37;;;;;;;23.83;15.55;;;;;;;19.75;50.74;102046.88;4989263;28;20421;-57
2022/05/26 11:22:03;;;;;;;23.75;16.77;;;;;;;19.68;51.13;102034.56;4990649;28;20142;-56
2022/05/26 11:24:29;;;;;;;21.48;15.10;;;;;;;19.72;51.43;102035.50;4990512;28;20030;-56
2022/05/26 11:27:04;;;;;;;21.98;14.57;;;;;;;19.72;51.51;102035.50;4991446;28;20029;-56
2022/05/26 11:29:35;;;;;;;21.60;14.48;;;;;;;19.76;51.74;102042.09;4992715;28;20109;-56
2022/05/26 11:37:55;;;;;;;21.17;13.43;;;;;;;20.01;50.76;102031.03;4993691;28;20524;-58
2022/05/26 11:40:30;;;;;;;20.80;12.02;;;;;;;20.01;49.91;102029.06;4992914;28;20026;-58
2022/05/26 11:42:58;;;;;;;21.83;13.45;;;;;;;19.97;50.19;102033.72;4992949;28;20113;-57
2022/05/26 11:45:28;;;;;;;20.88;13.88;;;;;;;19.90;51.01;102019.41;4991652;28;20037;-56
2022/05/26 11:48:00;;;;;;;20.95;13.77;;;;;;;20.09;50.96;102016.09;4992049;28;20058;-58
2022/05/26 11:50:42;;;;;;;22.65;13.77;;;;;;;20.44;50.59;102017.78;4992552;28;20101;-56
2022/05/26 11:53:35;;;;;;;22.00;13.90;;;;;;;20.77;50.28;102023.41;4993164;28;20046;-58
2022/05/26 11:56:04;;;;;;;22.17;14.63;;;;;;;20.87;48.87;102016.53;4993003;28;20034;-57
2022/05/26 11:58:36;;;;;;;22.02;15.35;;;;;;;20.80;49.02;102014.28;4992830;28;20026;-57
2022/05/26 12:01:21;;;;;;;22.02;15.23;;;;;;;20.72;49.27;102018.81;4992002;28;20038;-57
2022/05/26 12:03:53;;;;;;;22.88;15.85;;;;;;;20.62;49.23;102022.06;4993305;28;20105;-58